El Verano, CA (95433)

2:29 PM PST on January 19, 2017 (GMT -0800)
Boyes Hot Springs Fruit Basket | | Change Station
Active Advisory: Small Craft Advisory

Elev 144 ft 38.31 °N, 122.48 °W | Updated 4 minutes ago

Mostly Cloudy
Mostly Cloudy
61.2 °F
Feels Like 61.2 °F
N
4.1
Wind Variable Wind from SE
Gusts 6.8 mph

Today
High -- | Low -- °F
--% Chance of Precip.
Yesterday
High -- | Low -- °F
Precip. -- in
Pressure 29.83 in
Visibility 10.0 miles
Clouds Scattered Clouds 2600 ft
Dew Point 52 °F
Humidity 73%
Rainfall 0.27 in
Snow Depth Not available.
7:23 AM 5:18 PM
Waning Gibbous, 50% visible
METAR KO69 192215Z AUTO 30007KT 270V340 10SM SCT026 13/08 A2983 RMK AO1
Pressure 29.83 in
Visibility 10.0 miles
Clouds Scattered Clouds 2600 ft
Dew Point 52 °F
Humidity 73%
Rainfall 0.27 in
Snow Depth Not available.
7:23 AM 5:18 PM
Waning Gibbous, 50% visible
METAR KO69 192215Z AUTO 30007KT 270V340 10SM SCT026 13/08 A2983 RMK AO1

Get Your Daily Forecast Email!

Thanks for signing up!

Be on the lookout for a verification email in your inbox.

You'll start receiving the daily forecast at 8 AM.

×

10-Day Weather Forecast

Almanac

Astronomy

Jan. 19, 2017 Rise Set
Actual Time
Civil Twilight
Nautical Twilight
Astronomical Twilight
Moon
Length of Visible Light
Length of Day
Tomorrow will be .
, % of the Moon is Illuminated

Today's Extremes

State Highs State Lows

Community

WunderPhotos

Upload Photos

1,962,540 photos uploaded!

WunderBlog® & News

Nearby

Air Quality

  Air Quality AQ Index Pollutant
Not available.

Snow Depth

Station Depth Elevation

Earthquake Activity

City Distance Mag. Time & Date
Minimum magnitude displayed is 2.5.

Coastal Water Temperatures

Place Temperature

Stations

Nearby Weather Stations

Station Location Temp. Windchill Dew Point Humidity Wind Precip. Elev Updated Type
                   

Watches & Warnings

Small Craft Advisory
Issued: 2:13 PM PST Jan. 19, 2017 – National Weather Service

... Small Craft Advisory now in effect from midnight tonight to
10 PM PST Friday...

* winds and waves: see the coastal waters forecast (cwfmtr) or
our marine Page at http://weather.Gov/sanfrancisco/marine.Php
for more details.

Precautionary/preparedness actions...

A Small Craft Advisory means that wind speeds of 21 to 33 knots
are expected to produce hazardous wave conditions to small craft.
Inexperienced mariners... especially those operating smaller
vessels should avoid navigating in these conditions.